createdAt,value
2018-08-20T00:02:22.340Z,20.40
2018-08-20T00:04:50.658Z,20.30
2018-08-20T00:07:18.315Z,20.30
2018-08-20T00:09:46.437Z,20.40
2018-08-20T00:12:15.280Z,20.50
2018-08-20T00:14:42.914Z,20.40
2018-08-20T00:17:10.521Z,20.40
2018-08-20T00:19:40.253Z,20.40
2018-08-20T00:22:08.143Z,20.50
2018-08-20T00:24:35.783Z,20.50
2018-08-20T00:27:03.468Z,20.50
2018-08-20T00:29:34.706Z,20.60
2018-08-20T00:32:02.330Z,20.60
2018-08-20T00:34:30.009Z,20.70
2018-08-20T00:36:57.630Z,20.80
2018-08-20T00:39:25.255Z,20.80
2018-08-20T00:41:52.866Z,20.90
2018-08-20T00:44:20.477Z,20.90
2018-08-20T00:46:48.110Z,20.90
2018-08-20T00:49:16.394Z,20.90
2018-08-20T00:51:44.210Z,21.00
2018-08-20T00:54:11.842Z,20.90
2018-08-20T00:56:39.463Z,20.90
2018-08-20T00:59:07.066Z,20.90
2018-08-20T01:01:34.735Z,20.90
2018-08-20T01:04:02.862Z,20.90
2018-08-20T01:06:30.690Z,20.90
2018-08-20T01:08:58.423Z,20.80
2018-08-20T01:11:26.123Z,20.80
2018-08-20T01:13:53.776Z,20.90
2018-08-20T01:16:21.455Z,20.80
2018-08-20T01:18:49.091Z,20.70
2018-08-20T01:21:16.697Z,20.70
2018-08-20T01:23:44.371Z,20.70
2018-08-20T01:26:12.152Z,20.70
2018-08-20T01:28:39.833Z,20.60
2018-08-20T01:31:07.487Z,20.60
2018-08-20T01:33:35.106Z,20.70
2018-08-20T01:36:02.739Z,20.60
2018-08-20T01:38:30.372Z,20.60
2018-08-20T01:40:58.030Z,20.60
2018-08-20T01:43:25.642Z,20.70
2018-08-20T01:45:53.318Z,20.70
2018-08-20T01:48:20.929Z,20.80
2018-08-20T01:50:48.591Z,20.80
2018-08-20T01:53:16.276Z,20.80
2018-08-20T01:55:43.898Z,20.90
2018-08-20T01:58:11.492Z,20.90
2018-08-20T02:00:39.143Z,20.80
2018-08-20T02:03:06.866Z,20.80
2018-08-20T02:05:34.562Z,20.80
2018-08-20T02:08:02.278Z,20.90
2018-08-20T02:10:30.430Z,21.00
2018-08-20T02:12:58.087Z,20.90
2018-08-20T02:15:25.844Z,21.00
2018-08-20T02:17:53.861Z,21.00
2018-08-20T02:20:21.546Z,21.10
2018-08-20T02:22:49.210Z,21.20
2018-08-20T02:25:16.873Z,21.10
2018-08-20T02:27:44.557Z,21.00
2018-08-20T02:30:12.163Z,21.10
2018-08-20T02:32:39.814Z,21.10
2018-08-20T02:35:08.026Z,21.10
2018-08-20T02:37:41.169Z,21.10
2018-08-20T02:40:09.521Z,21.00
2018-08-20T02:42:37.334Z,21.00
2018-08-20T02:45:06.936Z,21.10
2018-08-20T02:47:34.637Z,21.10
2018-08-20T02:50:02.271Z,21.10
2018-08-20T02:52:29.964Z,21.00
2018-08-20T02:54:57.604Z,21.00
2018-08-20T02:57:25.255Z,20.90
2018-08-20T02:59:52.851Z,20.90
2018-08-20T03:02:20.487Z,20.80
2018-08-20T03:04:48.094Z,20.80
2018-08-20T03:07:15.728Z,20.80
2018-08-20T03:09:43.393Z,20.80
2018-08-20T03:12:11.066Z,20.80
2018-08-20T03:14:38.691Z,20.80
2018-08-20T03:17:06.380Z,20.70
2018-08-20T03:19:34.014Z,20.70
2018-08-20T03:22:01.717Z,20.60
2018-08-20T03:24:29.331Z,20.70
2018-08-20T03:26:57.018Z,20.60
2018-08-20T03:29:24.717Z,20.60
2018-08-20T03:31:52.412Z,20.60
2018-08-20T03:34:20.102Z,20.60
2018-08-20T03:36:47.782Z,20.50
2018-08-20T03:39:15.406Z,20.60
2018-08-20T03:41:43.111Z,20.50
2018-08-20T03:44:10.751Z,20.50
2018-08-20T03:46:38.358Z,20.40
2018-08-20T03:49:06.230Z,20.50
2018-08-20T03:51:33.935Z,20.50
2018-08-20T03:54:01.650Z,20.50
2018-08-20T03:56:29.286Z,20.40
2018-08-20T03:58:56.903Z,20.40
2018-08-20T04:01:25.175Z,20.30
2018-08-20T04:03:53.074Z,20.20
2018-08-20T04:06:20.696Z,20.20
2018-08-20T04:08:48.334Z,20.30
2018-08-20T04:11:15.958Z,20.30
2018-08-20T04:13:43.575Z,20.30
2018-08-20T04:16:11.208Z,20.30
2018-08-20T04:18:38.917Z,20.40
2018-08-20T04:21:06.737Z,20.40
2018-08-20T04:23:34.393Z,20.40
2018-08-20T04:26:02.175Z,20.30
2018-08-20T04:28:29.819Z,20.30
2018-08-20T04:30:57.504Z,20.30
2018-08-20T04:33:25.120Z,20.30
2018-08-20T04:35:52.853Z,20.40
2018-08-20T04:38:20.594Z,20.60
2018-08-20T04:40:48.282Z,20.70
2018-08-20T04:43:15.911Z,21.20
2018-08-20T04:45:43.534Z,21.60
2018-08-20T04:48:11.382Z,21.90
2018-08-20T04:50:39.119Z,22.80
2018-08-20T04:53:06.763Z,23.60
2018-08-20T04:55:34.365Z,23.60
2018-08-20T04:58:02.083Z,23.20
2018-08-20T05:00:29.699Z,23.60
2018-08-20T05:02:57.339Z,24.90
2018-08-20T05:05:25.050Z,25.70
2018-08-20T05:07:52.682Z,26.30
2018-08-20T05:10:20.291Z,26.70
2018-08-20T05:12:47.915Z,27.50
2018-08-20T05:15:15.547Z,27.30
2018-08-20T05:17:43.157Z,27.80
2018-08-20T05:20:10.858Z,29.10
2018-08-20T05:22:38.612Z,28.90
2018-08-20T05:25:06.382Z,28.20
2018-08-20T05:27:34.015Z,29.70
2018-08-20T05:30:01.641Z,29.80
2018-08-20T05:32:29.389Z,31.00
2018-08-20T05:34:57.010Z,31.10
2018-08-20T05:37:24.940Z,32.60
2018-08-20T05:39:52.571Z,33.70
2018-08-20T05:42:20.254Z,35.10
2018-08-20T05:44:47.980Z,35.60
2018-08-20T05:47:15.587Z,36.20
2018-08-20T05:49:43.250Z,36.30
2018-08-20T05:52:10.872Z,37.50
2018-08-20T05:54:38.534Z,37.50
2018-08-20T05:57:06.181Z,38.70
2018-08-20T05:59:33.856Z,39.30
2018-08-20T06:02:01.544Z,40.00
2018-08-20T06:04:29.259Z,40.10
2018-08-20T06:06:56.894Z,40.70
2018-08-20T06:09:24.527Z,40.80
2018-08-20T06:11:52.307Z,41.90
2018-08-20T06:14:19.958Z,42.30
2018-08-20T06:16:47.591Z,42.60
2018-08-20T06:19:15.239Z,42.90
2018-08-20T06:21:42.871Z,43.60
2018-08-20T06:24:10.552Z,44.00
2018-08-20T06:26:38.225Z,44.10
2018-08-20T06:29:05.868Z,44.40
2018-08-20T06:31:33.487Z,44.70
2018-08-20T06:34:01.145Z,45.10
2018-08-20T06:36:28.879Z,45.60
2018-08-20T06:38:56.491Z,44.30
2018-08-20T06:41:24.151Z,44.20
2018-08-20T06:43:51.772Z,44.70
2018-08-20T06:46:19.390Z,45.00
2018-08-20T06:48:47.018Z,45.50
2018-08-20T06:51:14.675Z,46.20
2018-08-20T06:53:42.309Z,46.90
2018-08-20T06:56:09.942Z,46.70
2018-08-20T06:58:37.562Z,47.00
2018-08-20T07:01:05.194Z,47.10
2018-08-20T07:03:32.875Z,47.40
2018-08-20T07:06:00.651Z,46.50
2018-08-20T07:08:28.294Z,46.40
2018-08-20T07:10:55.911Z,46.60
2018-08-20T07:13:27.462Z,47.60
2018-08-20T07:15:55.102Z,47.50
2018-08-20T07:18:22.737Z,47.60
2018-08-20T07:20:50.558Z,47.60
2018-08-20T07:23:18.341Z,48.70
2018-08-20T07:25:45.990Z,48.20
2018-08-20T07:28:13.638Z,49.00
2018-08-20T07:30:41.312Z,49.80
2018-08-20T07:33:09.014Z,50.10
2018-08-20T07:35:36.680Z,50.50
2018-08-20T07:38:04.371Z,50.90
2018-08-20T07:40:32.163Z,51.00
2018-08-20T07:43:00.045Z,50.90
2018-08-20T07:45:27.935Z,51.10
2018-08-20T07:47:55.638Z,51.60
2018-08-20T07:50:23.449Z,51.60
2018-08-20T07:52:51.191Z,51.70
2018-08-20T07:55:18.943Z,52.10
2018-08-20T07:57:46.746Z,52.20
2018-08-20T08:00:14.558Z,52.00
2018-08-20T08:02:42.314Z,51.70
2018-08-20T08:05:10.619Z,53.20
2018-08-20T08:07:38.852Z,51.20
2018-08-20T08:10:09.560Z,50.60
2018-08-20T08:12:37.922Z,46.10
2018-08-20T08:15:06.588Z,41.80
2018-08-20T08:17:34.218Z,39.20
2018-08-20T08:20:01.913Z,37.40
2018-08-20T08:22:29.615Z,36.20
2018-08-20T08:24:57.302Z,35.50
2018-08-20T08:27:25.015Z,34.90
2018-08-20T08:29:52.638Z,34.40
2018-08-20T08:32:20.315Z,33.80
2018-08-20T08:34:47.974Z,33.40
2018-08-20T08:37:15.614Z,33.30
2018-08-20T08:39:43.260Z,33.00
2018-08-20T08:42:10.875Z,32.10
2018-08-20T08:44:38.540Z,32.20
2018-08-20T08:47:06.815Z,32.10
2018-08-20T08:52:08.882Z,31.90
2018-08-20T08:54:36.496Z,31.70
2018-08-20T08:57:04.189Z,31.70
2018-08-20T08:59:31.923Z,31.60
2018-08-20T09:01:59.695Z,31.60
2018-08-20T09:04:27.443Z,31.60
2018-08-20T09:06:55.067Z,31.40
2018-08-20T09:09:22.726Z,31.40
2018-08-20T09:11:50.396Z,31.60
2018-08-20T09:14:18.059Z,31.40
2018-08-20T09:16:45.677Z,31.10
2018-08-20T09:19:13.340Z,30.90
2018-08-20T09:21:40.987Z,30.70
2018-08-20T09:24:08.674Z,30.70
2018-08-20T09:26:36.289Z,30.30
2018-08-20T09:29:03.933Z,30.30
2018-08-20T09:31:31.591Z,30.20
2018-08-20T09:33:59.303Z,30.40
2018-08-20T09:36:26.975Z,30.40
2018-08-20T09:38:54.594Z,30.30
2018-08-20T09:41:22.237Z,30.30
2018-08-20T09:43:49.851Z,30.50
2018-08-20T09:46:17.455Z,29.80
2018-08-20T09:48:45.091Z,30.00
2018-08-20T09:51:12.691Z,29.90
2018-08-20T09:53:40.351Z,30.10
2018-08-20T09:56:08.013Z,30.10
2018-08-20T09:58:35.693Z,29.80
2018-08-20T10:01:03.370Z,29.50
2018-08-20T10:03:31.020Z,29.30
2018-08-20T10:05:58.614Z,29.60
2018-08-20T10:08:26.374Z,29.70
2018-08-20T10:10:54.002Z,29.70
2018-08-20T10:13:21.627Z,29.10
2018-08-20T10:15:49.283Z,29.00
2018-08-20T10:18:16.900Z,29.60
2018-08-20T10:20:44.528Z,29.80
2018-08-20T10:23:12.187Z,29.90
2018-08-20T10:25:39.856Z,29.90
2018-08-20T10:28:07.600Z,30.00
2018-08-20T10:30:35.375Z,29.80
2018-08-20T10:33:03.052Z,29.60
2018-08-20T10:35:30.711Z,29.50
2018-08-20T10:37:58.510Z,29.60
2018-08-20T10:40:26.176Z,29.50
2018-08-20T10:42:53.880Z,31.60
2018-08-20T10:45:27.264Z,29.50
2018-08-20T10:47:54.928Z,29.50
2018-08-20T10:50:23.193Z,29.60
2018-08-20T10:52:51.395Z,29.50
2018-08-20T10:55:19.215Z,29.40
2018-08-20T10:57:47.005Z,29.50
2018-08-20T11:00:15.598Z,29.40
2018-08-20T11:02:43.374Z,29.40
2018-08-20T11:05:15.358Z,29.50
2018-08-20T11:07:43.238Z,29.50
2018-08-20T11:10:11.215Z,29.40
2018-08-20T11:12:39.013Z,29.30
2018-08-20T11:15:08.201Z,29.20
2018-08-20T11:17:36.308Z,29.20
2018-08-20T11:20:05.817Z,28.90
2018-08-20T11:22:33.610Z,28.80
2018-08-20T11:25:01.409Z,28.50
2018-08-20T11:27:29.224Z,28.60
2018-08-20T11:29:56.992Z,28.50
2018-08-20T11:32:24.933Z,28.70
2018-08-20T11:34:52.640Z,28.70
2018-08-20T11:37:20.274Z,28.70
2018-08-20T11:39:47.900Z,28.50
2018-08-20T11:42:15.573Z,28.60
2018-08-20T11:44:43.171Z,28.80
2018-08-20T11:47:10.803Z,28.80
2018-08-20T11:49:38.445Z,28.80
2018-08-20T11:52:06.143Z,28.80
2018-08-20T11:54:33.814Z,28.80
2018-08-20T11:57:01.467Z,28.60
2018-08-20T11:59:29.138Z,28.60
2018-08-20T12:01:56.781Z,28.40
2018-08-20T12:04:24.463Z,28.60
2018-08-20T12:06:52.138Z,28.40
2018-08-20T12:09:19.766Z,28.10
2018-08-20T12:11:47.413Z,28.20
2018-08-20T12:14:15.058Z,28.40
2018-08-20T12:16:42.670Z,28.40
2018-08-20T12:19:10.343Z,28.50
2018-08-20T12:21:37.995Z,28.50
2018-08-20T12:24:05.621Z,28.60
2018-08-20T12:26:33.277Z,28.70
2018-08-20T12:29:00.907Z,28.70
2018-08-20T12:31:28.615Z,28.80
2018-08-20T12:33:56.290Z,28.90
2018-08-20T12:36:23.951Z,28.80
2018-08-20T12:38:51.635Z,28.70
2018-08-20T12:41:19.283Z,28.70
2018-08-20T12:43:46.926Z,28.60
2018-08-20T12:46:17.835Z,28.60
2018-08-20T12:48:46.037Z,28.60
2018-08-20T12:51:13.670Z,28.60
2018-08-20T12:53:41.318Z,28.70
2018-08-20T12:56:09.226Z,28.80
2018-08-20T12:58:36.858Z,28.90
2018-08-20T13:01:04.487Z,29.00
2018-08-20T13:03:32.129Z,29.00
2018-08-20T13:05:59.783Z,28.90
2018-08-20T13:08:27.444Z,29.00
2018-08-20T13:10:55.108Z,29.20
2018-08-20T13:13:22.819Z,29.30
2018-08-20T13:15:50.487Z,29.30
2018-08-20T13:18:18.433Z,29.50
2018-08-20T13:20:46.077Z,29.50
2018-08-20T13:23:13.992Z,29.60
2018-08-20T13:25:41.666Z,29.60
2018-08-20T13:28:09.611Z,29.40
2018-08-20T13:30:37.405Z,29.50
2018-08-20T13:33:05.263Z,29.60
2018-08-20T13:35:32.965Z,29.70
2018-08-20T13:38:00.634Z,29.70
2018-08-20T13:40:28.595Z,29.70
2018-08-20T13:42:56.236Z,29.80
2018-08-20T13:45:23.871Z,29.80
2018-08-20T13:47:51.573Z,29.80
2018-08-20T13:50:19.293Z,29.70
2018-08-20T13:52:47.203Z,29.80
2018-08-20T13:55:14.874Z,29.80
2018-08-20T13:57:46.588Z,29.70
2018-08-20T14:00:16.027Z,29.70
2018-08-20T14:02:43.772Z,29.50
2018-08-20T14:05:11.526Z,29.30
2018-08-20T14:07:39.165Z,29.20
2018-08-20T14:10:07.966Z,29.30
2018-08-20T14:12:36.428Z,29.20
2018-08-20T14:15:04.345Z,29.30
2018-08-20T14:17:31.986Z,29.40
2018-08-20T14:19:59.756Z,29.60
2018-08-20T14:22:27.412Z,29.70
2018-08-20T14:24:55.025Z,29.70
2018-08-20T14:27:22.662Z,29.60
2018-08-20T14:29:50.286Z,29.70
2018-08-20T14:32:17.914Z,29.70
2018-08-20T14:34:45.539Z,29.60
2018-08-20T14:37:13.186Z,29.40
2018-08-20T14:39:40.792Z,29.20
2018-08-20T14:42:08.406Z,28.90
2018-08-20T14:44:36.035Z,29.00
2018-08-20T14:47:03.695Z,28.90
2018-08-20T14:49:31.343Z,29.00
2018-08-20T14:51:58.987Z,28.80
2018-08-20T14:54:26.651Z,28.70
2018-08-20T14:56:54.267Z,28.60
2018-08-20T14:59:21.887Z,28.60
2018-08-20T15:01:49.545Z,28.70
2018-08-20T15:04:17.243Z,28.80
2018-08-20T15:06:56.700Z,28.90
2018-08-20T15:09:25.400Z,28.90
2018-08-20T15:11:53.464Z,28.70
2018-08-20T15:14:21.290Z,28.80
2018-08-20T15:16:48.923Z,28.70
2018-08-20T15:19:16.855Z,28.70
2018-08-20T15:21:44.801Z,28.80
2018-08-20T15:24:12.541Z,28.70
2018-08-20T15:26:40.222Z,28.80
2018-08-20T15:29:08.048Z,28.80
2018-08-20T15:31:35.713Z,28.90
2018-08-20T15:34:03.347Z,28.80
2018-08-20T15:36:30.998Z,28.80
2018-08-20T15:38:58.746Z,28.70
2018-08-20T15:41:26.372Z,28.70
2018-08-20T15:43:53.982Z,28.80
2018-08-20T15:46:21.703Z,28.90
2018-08-20T15:48:49.347Z,28.80
2018-08-20T15:51:17.019Z,28.60
2018-08-20T15:53:44.838Z,28.60
2018-08-20T15:56:12.471Z,28.60
2018-08-20T15:58:40.103Z,28.60
2018-08-20T16:01:07.774Z,28.50
2018-08-20T16:03:35.398Z,28.40
2018-08-20T16:06:03.147Z,28.40
2018-08-20T16:08:31.377Z,28.30
2018-08-20T16:10:59.027Z,28.30
2018-08-20T16:13:26.642Z,28.30
2018-08-20T16:15:54.287Z,28.50
2018-08-20T16:18:21.963Z,28.50
2018-08-20T16:20:49.577Z,28.30
2018-08-20T16:23:17.207Z,28.30
2018-08-20T16:25:44.838Z,28.20
2018-08-20T16:28:12.477Z,28.30
2018-08-20T16:30:40.130Z,28.20
2018-08-20T16:33:07.871Z,28.10
2018-08-20T16:35:35.559Z,28.10
2018-08-20T16:38:03.368Z,28.20
2018-08-20T16:40:31.184Z,28.10
2018-08-20T16:42:58.854Z,28.00
2018-08-20T16:45:26.533Z,27.90
2018-08-20T16:47:54.134Z,27.60
2018-08-20T16:50:21.842Z,27.80
2018-08-20T16:52:49.575Z,27.80
2018-08-20T16:55:17.231Z,27.80
2018-08-20T16:57:44.858Z,27.80
2018-08-20T17:00:12.891Z,27.70
2018-08-20T17:02:41.349Z,27.70
2018-08-20T17:05:10.267Z,27.50
2018-08-20T17:07:38.034Z,27.60
2018-08-20T17:10:06.995Z,27.60
2018-08-20T17:12:34.678Z,27.60
2018-08-20T17:15:02.960Z,27.60
2018-08-20T17:17:30.547Z,27.30
2018-08-20T17:19:58.155Z,27.20
2018-08-20T17:22:25.806Z,27.20
2018-08-20T17:24:54.115Z,27.10
2018-08-20T17:27:21.794Z,27.10
2018-08-20T17:29:52.182Z,27.00
2018-08-20T17:32:19.886Z,27.10
2018-08-20T17:34:47.511Z,27.10
2018-08-20T17:37:15.211Z,26.90
2018-08-20T17:39:57.461Z,26.90
2018-08-20T17:42:26.708Z,26.90
2018-08-20T17:44:54.437Z,26.90
2018-08-20T17:47:22.832Z,26.90
2018-08-20T17:49:51.103Z,26.80
2018-08-20T17:52:19.015Z,26.90
2018-08-20T17:54:46.717Z,26.80
2018-08-20T17:57:14.627Z,26.80
2018-08-20T17:59:43.108Z,26.80
2018-08-20T18:02:19.230Z,26.90
2018-08-20T18:04:48.308Z,26.70
2018-08-20T18:07:15.950Z,26.60
2018-08-20T18:09:43.617Z,26.60
2018-08-20T18:12:11.248Z,26.60
2018-08-20T18:14:38.865Z,26.50
2018-08-20T18:17:06.783Z,26.40
2018-08-20T18:19:34.419Z,26.30
2018-08-20T18:22:02.274Z,26.40
2018-08-20T18:24:29.944Z,26.30
2018-08-20T18:26:57.584Z,26.20
2018-08-20T18:29:25.296Z,26.10
2018-08-20T18:31:54.318Z,26.10
2018-08-20T18:34:22.086Z,26.00
2018-08-20T18:36:49.710Z,26.00
2018-08-20T18:39:17.443Z,25.80
2018-08-20T18:42:01.834Z,25.70
2018-08-20T18:44:29.520Z,25.70
2018-08-20T18:46:57.261Z,25.60
2018-08-20T18:49:24.953Z,25.50
2018-08-20T18:52:00.333Z,25.50
2018-08-20T18:54:28.142Z,25.40
2018-08-20T18:57:02.930Z,25.40
2018-08-20T18:59:30.819Z,25.40
2018-08-20T19:01:58.514Z,25.50
2018-08-20T19:04:30.112Z,25.60
2018-08-20T19:07:02.696Z,25.70
2018-08-20T19:09:30.315Z,25.70
2018-08-20T19:11:57.964Z,25.70
2018-08-20T19:14:26.477Z,25.70
2018-08-20T19:16:54.259Z,25.70
2018-08-20T19:19:21.927Z,25.70
2018-08-20T19:21:49.631Z,25.70
2018-08-20T19:24:17.368Z,25.70
2018-08-20T19:26:45.233Z,25.80
2018-08-20T19:29:22.500Z,25.70
2018-08-20T19:31:50.164Z,25.50
2018-08-20T19:34:17.826Z,25.50
2018-08-20T19:36:45.446Z,25.50
2018-08-20T19:39:13.098Z,25.40
2018-08-20T19:41:40.747Z,25.30
2018-08-20T19:44:08.384Z,25.20
2018-08-20T19:46:36.804Z,25.20
2018-08-20T19:49:08.775Z,25.20
2018-08-20T19:51:38.075Z,25.20
2018-08-20T19:54:06.662Z,25.20
2018-08-20T19:56:34.297Z,25.10
2018-08-20T19:59:01.990Z,25.10
2018-08-20T20:01:29.709Z,24.90
2018-08-20T20:03:57.426Z,24.80
2018-08-20T20:06:25.147Z,24.70
2018-08-20T20:08:52.838Z,24.60
2018-08-20T20:11:26.064Z,24.60
2018-08-20T20:13:56.879Z,24.40
2018-08-20T20:16:24.922Z,24.40
2018-08-20T20:18:52.956Z,24.30
2018-08-20T20:21:21.286Z,24.30
2018-08-20T20:23:48.944Z,24.20
2018-08-20T20:26:16.748Z,24.10
2018-08-20T20:28:44.427Z,24.00
2018-08-20T20:31:12.183Z,24.00
2018-08-20T20:33:39.795Z,24.00
2018-08-20T20:36:10.300Z,24.00
2018-08-20T20:38:38.155Z,23.90
2018-08-20T20:41:06.350Z,23.90
2018-08-20T20:43:36.588Z,23.80
2018-08-20T20:46:06.145Z,23.70
2018-08-20T20:48:34.430Z,23.70
2018-08-20T20:51:02.222Z,23.70
2018-08-20T20:53:29.887Z,23.70
2018-08-20T20:55:57.588Z,23.60
2018-08-20T20:58:32.909Z,23.70
2018-08-20T21:01:01.714Z,23.70
2018-08-20T21:03:29.466Z,23.70
2018-08-20T21:05:57.351Z,23.70
2018-08-20T21:08:31.194Z,23.70
2018-08-20T21:10:58.890Z,23.60
2018-08-20T21:13:26.672Z,23.70
2018-08-20T21:16:02.926Z,23.50
2018-08-20T21:18:32.794Z,23.50
2018-08-20T21:21:00.514Z,23.50
2018-08-20T21:23:28.327Z,23.40
2018-08-20T21:25:56.035Z,23.40
2018-08-20T21:28:27.850Z,23.40
2018-08-20T21:30:55.549Z,23.30
2018-08-20T21:33:23.323Z,23.30
2018-08-20T21:35:50.991Z,23.20
2018-08-20T21:38:18.651Z,23.20
2018-08-20T21:40:46.395Z,23.10
2018-08-20T21:43:14.075Z,23.10
2018-08-20T21:45:41.758Z,23.20
2018-08-20T21:48:09.753Z,23.20
2018-08-20T21:50:37.418Z,23.10
2018-08-20T21:53:05.091Z,23.00
2018-08-20T21:55:32.746Z,23.00
2018-08-20T21:58:00.447Z,23.00
2018-08-20T22:00:29.430Z,22.90
2018-08-20T22:02:58.986Z,22.80
2018-08-20T22:05:26.918Z,22.70
2018-08-20T22:07:56.521Z,22.70
2018-08-20T22:10:25.115Z,22.60
2018-08-20T22:12:52.803Z,22.50
2018-08-20T22:15:20.462Z,22.50
2018-08-20T22:17:48.114Z,22.50
2018-08-20T22:20:15.821Z,22.40
2018-08-20T22:22:43.557Z,22.30
2018-08-20T22:25:14.563Z,22.20
2018-08-20T22:27:47.951Z,22.20
2018-08-20T22:30:15.839Z,22.20
2018-08-20T22:32:43.963Z,22.20
2018-08-20T22:35:17.093Z,22.10
2018-08-20T22:37:45.979Z,22.10
2018-08-20T22:40:14.471Z,22.00
2018-08-20T22:42:49.343Z,22.00
2018-08-20T22:45:18.225Z,22.00
2018-08-20T22:47:46.878Z,21.90
2018-08-20T22:50:14.707Z,21.90
2018-08-20T22:52:45.574Z,21.80
2018-08-20T22:55:15.419Z,21.80
2018-08-20T22:57:54.234Z,21.70
2018-08-20T23:00:22.775Z,21.70
2018-08-20T23:02:51.547Z,21.60
2018-08-20T23:05:19.185Z,21.50
2018-08-20T23:07:46.878Z,21.50
2018-08-20T23:10:14.558Z,21.50
2018-08-20T23:12:42.643Z,21.50
2018-08-20T23:15:13.193Z,21.50
2018-08-20T23:17:41.175Z,21.50
2018-08-20T23:20:17.544Z,21.50
2018-08-20T23:22:45.330Z,21.50
2018-08-20T23:25:13.058Z,21.50
2018-08-20T23:27:41.144Z,21.50
2018-08-20T23:30:09.719Z,21.30
2018-08-20T23:32:37.415Z,21.30
2018-08-20T23:35:05.075Z,21.30
2018-08-20T23:37:32.810Z,21.20
2018-08-20T23:40:00.542Z,21.20
2018-08-20T23:42:28.250Z,21.10
2018-08-20T23:44:56.550Z,21.10
2018-08-20T23:47:24.266Z,21.10
2018-08-20T23:49:51.866Z,21.00
2018-08-20T23:52:19.571Z,21.00
2018-08-20T23:54:47.239Z,21.10
2018-08-20T23:57:14.883Z,21.00
2018-08-20T23:59:42.511Z,21.10
